Time;durP1;ratioP1;P1;durP2;ratioP2;P2;SDS_P1;SDS_P2;PMS_P1;PMS_P2;Temp;Humidity;BMP_temperature;BMP_pressure;BME280_temperature;BME280_humidity;BME280_pressure;Samples;Min_cycle;Max_cycle;Signal;HPM_P1;HPM_P2
2021/04/13 00:02:22;;;;;;;7.30;5.00;;;12.10;39.90;;;;;;5056419;28;20475;-87
2021/04/13 00:04:52;;;;;;;8.13;5.93;;;12.20;40.20;;;;;;5056419;28;20474;-87
2021/04/13 00:07:21;;;;;;;7.23;5.57;;;12.30;39.10;;;;;;5056663;28;20460;-88
2021/04/13 00:09:48;;;;;;;6.00;4.60;;;12.30;39.20;;;;;;5057509;28;20452;-88
2021/04/13 00:12:17;;;;;;;7.63;5.23;;;12.60;38.70;;;;;;5055983;28;20468;-87
2021/04/13 00:14:47;;;;;;;8.20;5.70;;;12.90;38.10;;;;;;5055792;28;20516;-87
2021/04/13 00:17:18;;;;;;;7.30;5.23;;;12.30;36.10;;;;;;5056402;28;20473;-87
2021/04/13 00:20:00;;;;;;;7.93;5.10;;;11.80;37.10;;;;;;5039616;28;20474;-87
2021/04/13 00:22:28;;;;;;;5.70;4.70;;;11.90;39.30;;;;;;5035580;28;20481;-88
2021/04/13 00:24:55;;;;;;;4.80;4.00;;;11.80;38.40;;;;;;5035100;28;20459;-87
2021/04/13 00:27:23;;;;;;;7.70;4.80;;;12.30;39.90;;;;;;5034796;28;20538;-87
2021/04/13 00:29:50;;;;;;;7.57;5.40;;;11.90;37.20;;;;;;5053741;28;20448;-87
2021/04/13 00:32:22;;;;;;;9.43;5.63;;;11.20;37.70;;;;;;5054710;28;20463;-86
2021/04/13 00:34:53;;;;;;;8.57;4.97;;;11.00;37.70;;;;;;5055222;28;20478;-87
2021/04/13 00:37:24;;;;;;;12.50;5.33;;;10.90;39.60;;;;;;5054889;28;20590;-86
2021/04/13 00:39:52;;;;;;;6.90;5.60;;;11.20;39.40;;;;;;5034358;28;20905;-87
2021/04/13 00:42:31;;;;;;;6.77;5.40;;;11.40;38.80;;;;;;5035800;28;20536;-86
2021/04/13 00:45:01;;;;;;;12.13;5.70;;;10.80;38.60;;;;;;5034525;28;20931;-87
2021/04/13 00:47:31;;;;;;;11.43;5.70;;;10.40;37.90;;;;;;5036042;28;20434;-85
2021/04/13 00:50:01;;;;;;;7.17;5.30;;;10.10;40.20;;;;;;5055261;28;20478;-86
2021/04/13 00:52:36;;;;;;;8.50;5.90;;;10.20;40.50;;;;;;5055029;28;20464;-85
2021/04/13 00:55:07;;;;;;;14.93;6.23;;;10.70;40.80;;;;;;5054750;28;20456;-86
2021/04/13 00:57:38;;;;;;;7.60;5.20;;;10.80;39.60;;;;;;5054489;28;20865;-87
2021/04/13 01:00:08;;;;;;;8.77;5.23;;;10.50;40.20;;;;;;5054132;28;20459;-87
2021/04/13 01:02:35;;;;;;;10.63;5.60;;;10.40;40.10;;;;;;5053609;28;20547;-87
2021/04/13 01:05:11;;;;;;;5.70;4.90;;;10.70;40.90;;;;;;5049587;28;20568;-86
2021/04/13 01:07:41;;;;;;;7.93;5.80;;;10.60;41.10;;;;;;5040254;28;20444;-86
2021/04/13 01:10:12;;;;;;;8.73;6.13;;;10.30;38.10;;;;;;5057456;28;20474;-86
2021/04/13 01:12:42;;;;;;;9.53;5.77;;;9.80;42.00;;;;;;5055765;28;20469;-87
2021/04/13 01:15:12;;;;;;;9.37;6.30;;;9.60;41.00;;;;;;5055638;28;20531;-87
2021/04/13 01:17:40;;;;;;;8.57;6.20;;;9.70;40.60;;;;;;5056809;28;20494;-87
2021/04/13 01:20:13;;;;;;;20.03;6.10;;;9.70;42.10;;;;;;5054328;28;20432;-86
2021/04/13 01:22:47;;;;;;;7.40;5.47;;;9.40;41.70;;;;;;5059737;28;20486;-85
2021/04/13 01:25:19;;;;;;;8.57;5.97;;;9.10;42.30;;;;;;5072646;28;20572;-86
2021/04/13 01:27:50;;;;;;;8.30;6.07;;;8.80;43.20;;;;;;5073718;28;20447;-86
2021/04/13 01:30:19;;;;;;;11.20;7.00;;;9.00;43.70;;;;;;5073679;28;20448;-86
2021/04/13 01:32:46;;;;;;;8.43;5.10;;;8.90;41.80;;;;;;5073584;28;20475;-87
2021/04/13 01:35:15;;;;;;;13.93;7.97;;;8.90;44.10;;;;;;5075823;28;20906;-87
2021/04/13 01:37:56;;;;;;;11.57;7.10;;;9.40;41.40;;;;;;5077642;28;20501;-86
2021/04/13 01:40:29;;;;;;;10.00;7.63;;;9.20;40.40;;;;;;5078032;28;20519;-86
2021/04/13 01:42:58;;;;;;;10.23;6.43;;;9.10;41.40;;;;;;5076156;28;20984;-87
2021/04/13 01:45:27;;;;;;;8.73;6.07;;;8.80;43.70;;;;;;5076405;28;20472;-87
2021/04/13 01:47:56;;;;;;;12.43;7.00;;;9.00;42.80;;;;;;5076712;28;20451;-85
2021/04/13 01:50:25;;;;;;;9.17;6.20;;;9.10;42.80;;;;;;5077322;28;20448;-85
2021/04/13 01:53:02;;;;;;;9.60;5.97;;;9.10;41.80;;;;;;5077001;28;20484;-85
2021/04/13 01:55:31;;;;;;;9.70;7.40;;;9.50;42.90;;;;;;5075973;28;20427;-87
2021/04/13 01:58:06;;;;;;;6.33;5.20;;;9.50;41.30;;;;;;5076636;28;20511;-86
2021/04/13 02:00:40;;;;;;;12.83;7.50;;;9.60;41.80;;;;;;5067662;28;20854;-86
2021/04/13 02:03:11;;;;;;;11.33;6.37;;;9.30;40.20;;;;;;5061757;28;20945;-86
2021/04/13 02:05:41;;;;;;;8.67;5.50;;;8.70;42.10;;;;;;5065926;28;20498;-88
2021/04/13 02:08:16;;;;;;;8.63;5.40;;;8.40;45.00;;;;;;5063421;28;20506;-88
2021/04/13 02:10:50;;;;;;;14.40;6.90;;;8.50;45.00;;;;;;5064615;28;20523;-87
2021/04/13 02:13:19;;;;;;;6.50;5.00;;;8.60;43.50;;;;;;5049908;28;20988;-88
2021/04/13 02:15:54;;;;;;;10.07;6.67;;;8.90;42.60;;;;;;5057308;28;20808;-87
2021/04/13 02:18:25;;;;;;;10.10;6.00;;;8.60;44.30;;;;;;5048276;28;20453;-87
2021/04/13 02:20:53;;;;;;;8.50;5.20;;;8.90;44.30;;;;;;5043048;28;20430;-87
2021/04/13 02:23:27;;;;;;;8.90;6.80;;;8.80;43.90;;;;;;5043499;28;20484;-87
2021/04/13 02:25:56;;;;;;;9.20;5.80;;;8.90;42.10;;;;;;5059822;28;20499;-86
2021/04/13 02:28:23;;;;;;;9.33;6.70;;;8.80;42.80;;;;;;5062967;28;20428;-86
2021/04/13 02:30:50;;;;;;;9.40;6.27;;;9.30;43.10;;;;;;5048401;28;20587;-87
2021/04/13 02:33:31;;;;;;;7.30;5.77;;;9.80;41.60;;;;;;5059506;28;20502;-87
2021/04/13 02:36:07;;;;;;;10.70;5.30;;;9.90;41.60;;;;;;5063855;28;20471;-87
2021/04/13 02:38:37;;;;;;;11.30;6.13;;;10.00;42.60;;;;;;5062670;28;20432;-86
2021/04/13 02:41:13;;;;;;;8.17;5.53;;;10.60;42.10;;;;;;5044884;28;20552;-87
2021/04/13 02:43:44;;;;;;;9.43;5.60;;;10.80;41.60;;;;;;5047930;28;20473;-86
2021/04/13 02:46:15;;;;;;;11.67;6.70;;;11.10;41.40;;;;;;5051472;28;20623;-87
2021/04/13 02:48:50;;;;;;;8.30;6.03;;;10.50;38.10;;;;;;5075708;28;20452;-86
2021/04/13 02:51:18;;;;;;;12.00;7.07;;;9.70;41.10;;;;;;5075686;28;20440;-87
2021/04/13 02:53:49;;;;;;;11.00;5.83;;;9.70;42.10;;;;;;5057283;28;20461;-87
2021/04/13 02:56:22;;;;;;;11.10;6.17;;;9.50;41.60;;;;;;5053451;28;20442;-87
2021/04/13 02:58:58;;;;;;;9.87;5.80;;;9.30;40.80;;;;;;5042108;28;20469;-87
2021/04/13 03:01:25;;;;;;;12.90;6.90;;;9.30;42.00;;;;;;5039157;28;20435;-86
2021/04/13 03:03:53;;;;;;;11.03;6.40;;;9.20;43.70;;;;;;5059778;28;20464;-87
2021/04/13 03:06:21;;;;;;;7.83;6.17;;;9.80;42.20;;;;;;5059329;28;20498;-87
2021/04/13 03:08:48;;;;;;;8.43;5.47;;;9.90;40.00;;;;;;5058229;28;20478;-87
2021/04/13 03:11:19;;;;;;;10.10;4.67;;;9.60;42.00;;;;;;5059301;28;20500;-86
2021/04/13 03:13:48;;;;;;;8.97;6.43;;;9.90;42.30;;;;;;5058658;28;20484;-87
2021/04/13 03:16:18;;;;;;;9.10;6.40;;;10.40;42.10;;;;;;5058686;28;20792;-87
2021/04/13 03:18:48;;;;;;;10.67;5.17;;;10.70;40.90;;;;;;5059187;28;20436;-87
2021/04/13 03:21:19;;;;;;;7.33;4.77;;;11.00;41.80;;;;;;5040221;28;20433;-83
2021/04/13 03:23:46;;;;;;;7.10;4.50;;;11.40;41.90;;;;;;5037442;28;20514;-85
2021/04/13 03:26:18;;;;;;;8.40;4.70;;;11.80;41.30;;;;;;5057913;28;20495;-85
2021/04/13 03:28:48;;;;;;;6.10;5.17;;;12.10;40.50;;;;;;5038920;28;20907;-86
2021/04/13 03:31:18;;;;;;;11.13;6.37;;;12.40;40.00;;;;;;5058532;28;20550;-86
2021/04/13 03:33:46;;;;;;;7.10;5.37;;;12.40;39.60;;;;;;5059233;28;20592;-86
2021/04/13 03:36:17;;;;;;;9.50;5.50;;;12.20;38.50;;;;;;5058309;28;20933;-86
2021/04/13 03:38:46;;;;;;;7.67;5.70;;;12.00;38.70;;;;;;5057989;28;20494;-86
2021/04/13 03:41:17;;;;;;;5.40;4.80;;;11.80;39.20;;;;;;5058531;28;21052;-86
2021/04/13 03:43:44;;;;;;;7.67;4.33;;;12.10;39.10;;;;;;5061621;28;20520;-86
2021/04/13 03:46:12;;;;;;;6.90;4.33;;;12.20;40.30;;;;;;5070107;28;20821;-86
2021/04/13 03:48:42;;;;;;;7.87;4.90;;;12.20;39.50;;;;;;5075653;28;20467;-82
2021/04/13 03:51:11;;;;;;;7.60;4.83;;;12.30;39.80;;;;;;5078593;28;20432;-83
2021/04/13 03:53:41;;;;;;;7.60;4.80;;;12.70;37.90;;;;;;5077769;28;20487;-81
2021/04/13 03:56:11;;;;;;;12.20;6.93;;;12.30;38.50;;;;;;5058010;28;20430;-82
2021/04/13 03:58:40;;;;;;;6.60;5.23;;;11.80;36.10;;;;;;5058173;28;20414;-82
2021/04/13 04:01:09;;;;;;;8.63;5.90;;;11.60;39.10;;;;;;5058083;28;20430;-81
2021/04/13 04:03:39;;;;;;;11.50;5.47;;;11.40;37.70;;;;;;5058216;28;20461;-81
2021/04/13 04:06:06;;;;;;;10.30;5.80;;;11.40;38.20;;;;;;5056903;28;20472;-83
2021/04/13 04:08:40;;;;;;;13.60;6.83;;;10.20;37.10;;;;;;5058257;28;20906;-83
2021/04/13 04:11:07;;;;;;;9.70;6.77;;;9.70;39.50;;;;;;5058056;28;20464;-80
2021/04/13 04:13:38;;;;;;;8.03;6.00;;;9.50;38.50;;;;;;5057041;28;20457;-81
2021/04/13 04:16:15;;;;;;;11.90;5.97;;;9.50;43.10;;;;;;5057165;28;20409;-81
2021/04/13 04:18:44;;;;;;;6.33;4.90;;;10.00;41.90;;;;;;5057886;28;20440;-80
2021/04/13 04:21:25;;;;;;;12.73;6.97;;;10.30;40.10;;;;;;5057964;28;20428;-80
2021/04/13 04:23:55;;;;;;;14.40;6.83;;;9.70;39.20;;;;;;5057754;28;20496;-81
2021/04/13 04:26:25;;;;;;;10.40;6.93;;;9.80;40.70;;;;;;5057791;28;20465;-81
2021/04/13 04:28:53;;;;;;;8.63;6.77;;;8.70;41.70;;;;;;5057706;28;20426;-83
2021/04/13 04:31:36;;;;;;;9.93;6.60;;;8.30;43.40;;;;;;5056841;28;20433;-82
2021/04/13 04:34:47;;;;;;;13.40;7.17;;;8.20;45.40;;;;;;5076476;28;20452;-81
2021/04/13 04:37:29;;;;;;;10.40;7.60;;;7.60;42.70;;;;;;4997553;28;20420;-83
2021/04/13 04:40:15;;;;;;;11.43;6.63;;;7.20;43.90;;;;;;5066023;28;20453;-80
2021/04/13 04:42:49;;;;;;;13.03;7.60;;;7.50;45.90;;;;;;5056765;28;20456;-80
2021/04/13 04:45:18;;;;;;;7.53;5.57;;;7.90;45.30;;;;;;5057405;28;20429;-83
2021/04/13 04:47:49;;;;;;;10.43;7.10;;;9.10;46.60;;;;;;5076851;28;20435;-83
2021/04/13 04:50:19;;;;;;;13.17;6.97;;;9.90;44.00;;;;;;5077357;28;20443;-82
2021/04/13 04:52:46;;;;;;;8.17;5.20;;;10.20;41.30;;;;;;5076880;28;20462;-83
2021/04/13 04:55:15;;;;;;;10.90;7.07;;;10.10;41.60;;;;;;5075475;28;20431;-82
2021/04/13 04:57:42;;;;;;;10.30;6.47;;;10.40;41.30;;;;;;5077528;28;20445;-83
2021/04/13 05:00:11;;;;;;;12.57;5.83;;;10.30;39.20;;;;;;5077566;28;20443;-84
2021/04/13 05:02:37;;;;;;;6.47;5.03;;;10.30;40.30;;;;;;5077292;28;20484;-84
2021/04/13 05:05:06;;;;;;;8.67;5.20;;;10.30;39.20;;;;;;5077359;28;20443;-86
2021/04/13 05:07:32;;;;;;;9.37;6.60;;;10.50;41.00;;;;;;5076681;28;20476;-83
2021/04/13 05:09:59;;;;;;;11.73;7.37;;;10.40;39.90;;;;;;5077778;28;20516;-86
2021/04/13 05:12:25;;;;;;;8.03;5.70;;;10.20;39.70;;;;;;5077335;28;20468;-86
2021/04/13 05:14:52;;;;;;;11.07;7.93;;;9.30;41.40;;;;;;5072568;28;20428;-85
2021/04/13 05:17:18;;;;;;;13.57;8.83;;;9.20;39.80;;;;;;5072077;28;20436;-86
2021/04/13 05:19:45;;;;;;;15.43;9.03;;;8.60;39.70;;;;;;5073658;28;20955;-85
2021/04/13 05:22:12;;;;;;;10.00;7.53;;;8.50;40.70;;;;;;5073305;28;20447;-87
2021/04/13 05:24:39;;;;;;;12.80;6.73;;;9.10;46.30;;;;;;5066421;28;20500;-86
2021/04/13 05:27:06;;;;;;;13.03;7.70;;;10.20;41.30;;;;;;5066252;28;20571;-87
2021/04/13 05:29:32;;;;;;;10.93;7.10;;;10.70;38.30;;;;;;5072936;28;20464;-86
2021/04/13 05:31:58;;;;;;;17.03;9.73;;;11.20;36.60;;;;;;5072640;28;20518;-86
2021/04/13 05:34:25;;;;;;;10.53;8.03;;;11.90;35.00;;;;;;5064499;28;20631;-86
2021/04/13 05:36:53;;;;;;;16.10;10.47;;;11.90;34.10;;;;;;5059692;28;20625;-87
2021/04/13 05:39:21;;;;;;;13.27;8.40;;;11.80;34.80;;;;;;5059277;28;20463;-86
2021/04/13 05:41:48;;;;;;;16.00;8.20;;;11.50;34.60;;;;;;5059191;28;20431;-86
2021/04/13 05:44:15;;;;;;;14.53;9.17;;;11.90;36.70;;;;;;5060274;28;20487;-86
2021/04/13 05:46:42;;;;;;;15.43;9.53;;;12.40;34.10;;;;;;5061563;28;20945;-86
2021/04/13 05:49:09;;;;;;;14.97;8.30;;;12.30;34.00;;;;;;5059328;28;20480;-86
2021/04/13 05:51:36;;;;;;;14.10;7.83;;;12.50;34.10;;;;;;5060764;28;20480;-86
2021/04/13 05:54:02;;;;;;;24.90;7.37;;;13.60;32.00;;;;;;5058208;28;20465;-86
2021/04/13 05:56:32;;;;;;;10.23;7.50;;;14.00;31.80;;;;;;5058417;28;20444;-86
2021/04/13 05:58:59;;;;;;;14.80;7.03;;;13.70;31.10;;;;;;5058957;28;20434;-86
2021/04/13 06:01:27;;;;;;;15.47;7.73;;;14.00;31.00;;;;;;5057524;28;20453;-86
2021/04/13 06:03:55;;;;;;;16.50;8.30;;;14.10;30.10;;;;;;5057876;28;20480;-87
2021/04/13 06:06:21;;;;;;;9.03;5.77;;;14.30;30.80;;;;;;5043385;28;20547;-87
2021/04/13 06:08:49;;;;;;;9.00;6.97;;;14.90;32.00;;;;;;5038695;28;20439;-86
2021/04/13 06:11:19;;;;;;;12.57;7.93;;;15.20;27.20;;;;;;5057252;28;20496;-87
2021/04/13 06:13:51;;;;;;;13.60;7.53;;;14.10;28.10;;;;;;5065457;28;20555;-85
2021/04/13 06:16:20;;;;;;;12.90;7.80;;;13.20;31.10;;;;;;5044602;28;20453;-86
2021/04/13 06:18:46;;;;;;;9.60;7.60;;;12.80;29.70;;;;;;5042139;28;20456;-87
2021/04/13 06:21:14;;;;;;;14.10;9.10;;;12.30;30.70;;;;;;5043412;28;20453;-86
2021/04/13 06:23:41;;;;;;;13.57;9.20;;;12.30;31.10;;;;;;5042551;28;20490;-87
2021/04/13 06:26:07;;;;;;;12.03;8.07;;;12.50;32.30;;;;;;5054944;28;20476;-86
2021/04/13 06:28:34;;;;;;;11.57;7.67;;;12.50;31.50;;;;;;5060134;28;20450;-86
2021/04/13 06:31:02;;;;;;;10.40;7.20;;;11.90;32.00;;;;;;5058599;28;20436;-87
2021/04/13 06:33:28;;;;;;;11.50;7.30;;;12.50;33.50;;;;;;5058352;28;20471;-87
2021/04/13 06:35:57;;;;;;;11.30;7.80;;;12.80;30.70;;;;;;5057633;28;20468;-87
2021/04/13 06:38:23;;;;;;;14.10;7.53;;;13.20;30.20;;;;;;5058471;28;20455;-86
2021/04/13 06:41:00;;;;;;;10.03;7.20;;;13.10;31.00;;;;;;5057852;28;20763;-86
2021/04/13 06:43:48;;;;;;;11.10;7.23;;;14.00;29.80;;;;;;5057846;28;20465;-86
2021/04/13 06:46:27;;;;;;;10.00;6.80;;;14.70;29.10;;;;;;5058741;28;20480;-86
2021/04/13 06:49:17;;;;;;;9.23;6.57;;;15.30;28.40;;;;;;5059300;28;20428;-87
2021/04/13 06:51:54;;;;;;;8.57;5.80;;;15.10;27.80;;;;;;5039834;28;20763;-87
2021/04/13 06:54:40;;;;;;;13.40;8.20;;;15.40;28.40;;;;;;5038820;28;20468;-87
2021/04/13 06:57:23;;;;;;;12.37;6.33;;;15.20;28.20;;;;;;5038382;28;20469;-86
2021/04/13 07:00:12;;;;;;;12.13;8.60;;;14.30;29.20;;;;;;5037525;28;20445;-87
2021/04/13 07:02:49;;;;;;;9.90;7.40;;;13.20;30.10;;;;;;5048179;28;20457;-87
2021/04/13 07:05:21;;;;;;;9.43;7.20;;;12.30;33.70;;;;;;5060738;28;20444;-86
2021/04/13 07:07:53;;;;;;;14.73;6.60;;;12.30;31.10;;;;;;5057464;28;20863;-86
2021/04/13 07:10:25;;;;;;;14.53;7.90;;;12.00;35.20;;;;;;5057401;28;20452;-86
2021/04/13 07:13:00;;;;;;;10.83;8.23;;;13.00;32.10;;;;;;5045598;28;20484;-86
2021/04/13 07:15:31;;;;;;;27.10;8.00;;;13.30;30.10;;;;;;5037820;28;20910;-86
2021/04/13 07:18:06;;;;;;;9.50;7.80;;;13.40;31.20;;;;;;5037291;28;20425;-86
2021/04/13 07:20:37;;;;;;;11.00;7.87;;;14.20;29.00;;;;;;5038123;28;20512;-87
2021/04/13 07:23:09;;;;;;;9.23;6.60;;;13.60;29.60;;;;;;5051133;28;20512;-87
2021/04/13 07:25:42;;;;;;;9.97;8.27;;;13.60;30.00;;;;;;5057244;28;20410;-87
2021/04/13 07:28:14;;;;;;;10.57;8.30;;;13.20;31.10;;;;;;5057142;28;20549;-87
2021/04/13 07:30:44;;;;;;;11.13;7.90;;;13.60;31.20;;;;;;5058240;28;20535;-87
2021/04/13 07:33:16;;;;;;;12.03;8.10;;;14.30;28.80;;;;;;5039511;28;20484;-86
2021/04/13 07:35:43;;;;;;;9.97;8.27;;;14.20;29.20;;;;;;5037450;28;20465;-87
2021/04/13 07:38:12;;;;;;;13.77;8.17;;;13.30;29.00;;;;;;5056345;28;20472;-87
2021/04/13 07:40:44;;;;;;;12.90;9.00;;;12.60;29.40;;;;;;5060555;28;20813;-86
2021/04/13 07:43:20;;;;;;;9.90;7.93;;;12.80;30.00;;;;;;5056992;28;20973;-86
2021/04/13 07:45:52;;;;;;;9.97;7.50;;;13.40;29.50;;;;;;5056875;28;20480;-86
2021/04/13 07:48:47;;;;;;;12.87;8.77;;;14.20;30.00;;;;;;5056995;28;20962;-87
2021/04/13 07:51:19;;;;;;;13.50;8.90;;;15.30;26.60;;;;;;5034043;28;20558;-87
2021/04/13 07:54:01;;;;;;;10.00;7.27;;;15.80;26.90;;;;;;5058756;28;20508;-86
2021/04/13 07:56:40;;;;;;;10.67;7.83;;;16.20;26.20;;;;;;5059196;28;20423;-86
2021/04/13 07:59:14;;;;;;;10.27;7.03;;;15.40;26.50;;;;;;5057802;28;20607;-86
2021/04/13 08:01:41;;;;;;;10.50;7.80;;;15.60;26.30;;;;;;5064331;28;20444;-86
2021/04/13 08:04:08;;;;;;;14.10;7.77;;;15.40;26.70;;;;;;5067948;28;20464;-86
2021/04/13 08:06:44;;;;;;;13.30;8.20;;;16.00;25.80;;;;;;5062241;28;20519;-86
2021/04/13 08:09:29;;;;;;;11.20;7.70;;;16.40;25.50;;;;;;5056748;28;20902;-86
2021/04/13 08:12:23;;;;;;;10.87;8.13;;;16.00;25.70;;;;;;5055004;28;21008;-87
2021/04/13 08:15:05;;;;;;;11.63;8.60;;;16.20;25.60;;;;;;5055236;28;20608;-86
2021/04/13 08:17:33;;;;;;;19.47;9.60;;;16.50;25.60;;;;;;5069184;28;20433;-85
2021/04/13 08:20:05;;;;;;;11.17;8.20;;;16.40;25.80;;;;;;5069620;28;20444;-85
2021/04/13 08:22:50;;;;;;;18.10;8.63;;;17.00;27.00;;;;;;5071199;28;20483;-86
2021/04/13 08:25:31;;;;;;;8.17;6.97;;;16.50;25.40;;;;;;5063823;28;20448;-87
2021/04/13 08:28:05;;;;;;;9.50;6.60;;;16.10;24.80;;;;;;5057903;28;20472;-86
2021/04/13 08:30:44;;;;;;;11.70;8.30;;;15.50;26.50;;;;;;5059918;28;20516;-86
2021/04/13 08:33:25;;;;;;;13.43;8.50;;;15.80;25.30;;;;;;5060410;28;20559;-88
2021/04/13 08:36:13;;;;;;;12.30;8.60;;;15.50;26.80;;;;;;5062564;28;20444;-87
2021/04/13 08:38:52;;;;;;;6.97;6.23;;;16.10;26.40;;;;;;5061560;28;20919;-86
2021/04/13 08:41:36;;;;;;;16.17;7.90;;;16.40;24.80;;;;;;5061201;28;20448;-86
2021/04/13 08:44:17;;;;;;;14.60;8.43;;;15.90;24.30;;;;;;5063565;28;21015;-86
2021/04/13 08:46:49;;;;;;;8.77;5.50;;;14.80;26.20;;;;;;5067640;28;20541;-86
2021/04/13 08:49:31;;;;;;;9.13;7.50;;;14.50;27.40;;;;;;5070430;28;20451;-86
2021/04/13 08:52:16;;;;;;;9.70;8.30;;;13.90;29.40;;;;;;5064478;28;20434;-85
2021/04/13 08:54:46;;;;;;;6.00;5.10;;;13.70;26.60;;;;;;5064177;28;20555;-86
2021/04/13 08:57:32;;;;;;;11.27;6.83;;;13.50;31.80;;;;;;5062262;28;20444;-85
2021/04/13 09:00:02;;;;;;;11.30;8.97;;;13.80;30.80;;;;;;5062475;28;20429;-86
2021/04/13 09:02:31;;;;;;;19.20;12.30;;;11.70;28.90;;;;;;5060899;28;20459;-85
2021/04/13 09:05:06;;;;;;;12.43;10.13;;;11.20;30.60;;;;;;5067650;28;20456;-82
2021/04/13 09:07:51;;;;;;;12.33;9.97;;;11.00;31.60;;;;;;5080130;28;20486;-83
2021/04/13 09:10:26;;;;;;;15.40;11.60;;;11.00;35.10;;;;;;5081013;28;20443;-84
2021/04/13 09:13:05;;;;;;;17.20;12.20;;;11.50;32.90;;;;;;5081072;28;20483;-83
2021/04/13 09:15:32;;;;;;;14.70;10.17;;;11.70;33.40;;;;;;5080551;28;20427;-85
2021/04/13 09:18:09;;;;;;;9.50;7.80;;;11.60;35.00;;;;;;5080645;28;20523;-84
2021/04/13 09:20:39;;;;;;;5.70;5.13;;;12.10;33.80;;;;;;5080879;28;20446;-87
2021/04/13 09:23:25;;;;;;;13.67;11.80;;;12.70;36.40;;;;;;5075686;28;21043;-87
2021/04/13 09:26:14;;;;;;;18.13;12.70;;;12.30;31.40;;;;;;5075695;28;20435;-85
2021/04/13 09:28:49;;;;;;;18.37;13.00;;;10.10;34.10;;;;;;5076569;28;20411;-85
2021/04/13 09:31:21;;;;;;;18.17;13.20;;;8.60;39.10;;;;;;5079342;28;20425;-85
2021/04/13 09:33:48;;;;;;;14.27;11.60;;;8.20;40.30;;;;;;5079695;28;20475;-86
2021/04/13 09:36:35;;;;;;;15.87;10.63;;;8.20;41.60;;;;;;5074251;28;20444;-85
2021/04/13 09:39:31;;;;;;;15.03;10.60;;;7.30;42.70;;;;;;5066110;28;20417;-86
2021/04/13 09:42:29;;;;;;;15.07;11.90;;;6.90;43.10;;;;;;5071675;28;20510;-86
2021/04/13 09:45:10;;;;;;;14.73;10.93;;;6.90;43.40;;;;;;5001220;28;20454;-88
2021/04/13 09:48:09;;;;;;;16.00;8.63;;;7.40;41.20;;;;;;5079450;28;20472;-85
2021/04/13 09:50:43;;;;;;;17.07;7.93;;;7.60;40.10;;;;;;5078621;28;20481;-86
2021/04/13 09:53:35;;;;;;;16.87;9.87;;;8.00;37.90;;;;;;5078968;28;20475;-86
2021/04/13 09:56:22;;;;;;;9.30;7.43;;;8.60;38.90;;;;;;5076707;28;20440;-86
2021/04/13 09:59:08;;;;;;;9.20;7.90;;;8.50;37.70;;;;;;5076889;28;20436;-86
2021/04/13 10:01:57;;;;;;;17.80;7.27;;;9.00;35.60;;;;;;5079247;28;20468;-86
2021/04/13 10:04:40;;;;;;;8.83;6.73;;;8.80;34.00;;;;;;5079444;28;20437;-85
2021/04/13 10:07:28;;;;;;;8.43;6.40;;;8.90;36.50;;;;;;5078130;28;20459;-83
2021/04/13 10:09:57;;;;;;;8.30;6.23;;;9.60;37.30;;;;;;5070229;28;20444;-85
2021/04/13 10:12:59;;;;;;;13.83;6.47;;;10.50;31.20;;;;;;5073912;28;20536;-86
2021/04/13 10:16:10;;;;;;;8.20;5.70;;;10.30;29.20;;;;;;5075147;28;20438;-86
2021/04/13 10:19:04;;;;;;;9.17;5.97;;;10.00;30.40;;;;;;5047369;28;20481;-83
2021/04/13 10:22:01;;;;;;;6.93;6.40;;;8.70;30.30;;;;;;5039283;28;20436;-88
2021/04/13 10:24:47;;;;;;;12.60;5.30;;;9.30;30.90;;;;;;5038468;28;20446;-87
2021/04/13 10:27:43;;;;;;;9.10;6.50;;;10.00;29.70;;;;;;5039396;28;20503;-86
2021/04/13 10:30:33;;;;;;;9.00;5.83;;;10.80;30.10;;;;;;5031089;28;20511;-87
2021/04/13 10:33:12;;;;;;;8.03;6.20;;;11.00;28.90;;;;;;5042542;28;20465;-87
2021/04/13 10:36:12;;;;;;;12.40;7.23;;;10.80;27.10;;;;;;5047899;28;20515;-86
2021/04/13 10:39:11;;;;;;;8.27;6.80;;;10.70;28.70;;;;;;5070141;28;20420;-86
2021/04/13 10:42:22;;;;;;;9.60;6.90;;;11.00;28.80;;;;;;5045842;28;20455;-84
2021/04/13 10:45:17;;;;;;;10.50;6.87;;;10.60;29.40;;;;;;5075417;28;20409;-87
2021/04/13 10:48:31;;;;;;;6.43;5.70;;;9.80;30.20;;;;;;5074877;28;20460;-86
2021/04/13 10:51:36;;;;;;;9.93;5.87;;;9.30;30.30;;;;;;5075844;28;20425;-87
2021/04/13 10:54:41;;;;;;;7.80;4.83;;;9.20;31.50;;;;;;5071182;28;20469;-85
2021/04/13 10:57:35;;;;;;;5.47;4.90;;;9.50;32.80;;;;;;5067616;28;20459;-86
2021/04/13 11:00:15;;;;;;;8.30;6.70;;;10.50;29.60;;;;;;5075764;28;20446;-85
2021/04/13 11:03:27;;;;;;;7.37;6.23;;;10.20;27.40;;;;;;5076820;28;20460;-86
2021/04/13 11:06:29;;;;;;;11.57;6.13;;;10.30;27.00;;;;;;5072096;28;20417;-86
2021/04/13 11:09:38;;;;;;;10.00;6.80;;;11.00;29.50;;;;;;5067991;28;20534;-87
2021/04/13 11:12:43;;;;;;;10.23;7.40;;;11.80;26.60;;;;;;5059137;28;20464;-84
2021/04/13 11:15:32;;;;;;;9.50;7.73;;;12.40;27.20;;;;;;5037257;28;20461;-85
2021/04/13 11:18:01;;;;;;;15.67;8.50;;;12.50;29.30;;;;;;5076601;28;20492;-83
2021/04/13 11:20:56;;;;;;;11.70;7.70;;;12.80;28.00;;;;;;5075460;28;20439;-86
2021/04/13 11:23:55;;;;;;;8.77;6.33;;;12.50;27.90;;;;;;5074629;28;20535;-87
2021/04/13 11:27:18;;;;;;;13.80;7.10;;;12.40;27.30;;;;;;5070308;28;20468;-87
2021/04/13 11:30:26;;;;;;;10.87;7.57;;;12.70;26.00;;;;;;5036445;28;20444;-86
2021/04/13 11:33:22;;;;;;;11.27;9.00;;;11.90;26.40;;;;;;5028532;28;20495;-86
2021/04/13 11:35:54;;;;;;;10.50;7.10;;;10.90;26.40;;;;;;5052429;28;20429;-85
2021/04/13 11:38:44;;;;;;;10.83;8.57;;;11.50;26.00;;;;;;5057243;28;20432;-85
2021/04/13 11:41:21;;;;;;;8.93;7.20;;;11.60;25.30;;;;;;5074560;28;20428;-85
2021/04/13 11:43:51;;;;;;;9.83;6.80;;;11.80;26.00;;;;;;5071139;28;20497;-85
2021/04/13 11:46:23;;;;;;;8.07;6.97;;;12.20;24.70;;;;;;5070104;28;20487;-84
2021/04/13 11:48:58;;;;;;;10.33;7.97;;;12.60;24.70;;;;;;5058440;28;20439;-85
2021/04/13 11:51:34;;;;;;;10.13;7.63;;;12.00;24.30;;;;;;5058538;28;20447;-85
2021/04/13 11:54:38;;;;;;;12.07;7.63;;;11.50;25.80;;;;;;5068532;28;20475;-85
2021/04/13 11:57:12;;;;;;;10.50;7.60;;;10.90;26.80;;;;;;5069604;28;20790;-84
2021/04/13 11:59:38;;;;;;;12.97;7.63;;;9.90;28.60;;;;;;5069808;28;20413;-86
2021/04/13 12:02:24;;;;;;;8.00;6.60;;;9.50;28.40;;;;;;5059448;28;20427;-85
2021/04/13 12:04:53;;;;;;;14.00;6.90;;;9.70;29.20;;;;;;5062288;28;20462;-86
2021/04/13 12:07:46;;;;;;;9.03;7.33;;;10.00;27.40;;;;;;5067251;28;20484;-88
2021/04/13 12:10:34;;;;;;;8.63;6.57;;;10.00;26.60;;;;;;5068462;28;20452;-87
2021/04/13 12:13:04;;;;;;;6.53;5.80;;;10.20;26.40;;;;;;5069316;28;20462;-87
2021/04/13 12:15:57;;;;;;;4.17;3.90;;;9.60;25.20;;;;;;5048891;28;20465;-87
2021/04/13 12:18:44;;;;;;;12.90;6.40;;;10.60;26.70;;;;;;5048420;28;20452;-87
2021/04/13 12:21:50;;;;;;;9.07;5.80;;;11.70;24.10;;;;;;5052583;28;20436;-87
2021/04/13 12:24:46;;;;;;;6.70;5.90;;;12.60;23.60;;;;;;5040761;28;20487;-87
2021/04/13 12:27:46;;;;;;;6.23;5.37;;;13.00;24.20;;;;;;5050706;28;20522;-87
2021/04/13 12:31:03;;;;;;;12.00;6.27;;;12.10;21.60;;;;;;5051233;28;20429;-87
2021/04/13 12:34:03;;;;;;;9.37;6.20;;;12.20;22.60;;;;;;5068413;28;20467;-85
2021/04/13 12:36:51;;;;;;;5.97;5.67;;;13.30;21.80;;;;;;5074375;28;20425;-85
2021/04/13 12:39:44;;;;;;;8.03;6.57;;;14.30;21.10;;;;;;5073040;28;20504;-85
2021/04/13 12:42:43;;;;;;;5.93;5.53;;;13.90;21.30;;;;;;5071444;28;20444;-83
2021/04/13 12:45:30;;;;;;;6.83;5.40;;;13.20;21.90;;;;;;5064473;28;20464;-85
2021/04/13 12:48:00;;;;;;;8.90;4.87;;;11.70;21.80;;;;;;5065803;28;20479;-84
2021/04/13 12:50:31;;;;;;;7.40;5.20;;;11.70;21.10;;;;;;5074706;28;20432;-85
2021/04/13 12:52:58;;;;;;;5.10;4.43;;;11.50;19.60;;;;;;5073579;28;20456;-86
2021/04/13 12:55:27;;;;;;;6.23;4.60;;;10.70;19.00;;;;;;5074418;28;20459;-84
2021/04/13 12:57:55;;;;;;;5.10;4.73;;;10.70;20.70;;;;;;5074528;28;20443;-84
2021/04/13 13:00:24;;;;;;;7.80;5.00;;;11.10;21.90;;;;;;5074190;28;20453;-85
2021/04/13 13:02:52;;;;;;;7.93;4.97;;;11.10;21.60;;;;;;5075689;28;20459;-85
2021/04/13 13:05:23;;;;;;;9.40;5.70;;;11.50;21.10;;;;;;5074146;28;20460;-86
2021/04/13 13:07:56;;;;;;;3.27;3.17;;;12.10;21.60;;;;;;5074781;28;20483;-86
2021/04/13 13:10:29;;;;;;;5.50;5.00;;;12.90;24.30;;;;;;5068026;28;20436;-84
2021/04/13 13:13:02;;;;;;;6.30;5.03;;;13.50;20.10;;;;;;5058604;28;20878;-85
2021/04/13 13:15:33;;;;;;;5.40;5.00;;;13.00;22.10;;;;;;5046380;28;20456;-85
2021/04/13 13:18:15;;;;;;;5.47;4.30;;;12.20;18.70;;;;;;5060255;28;20456;-85
2021/04/13 13:20:42;;;;;;;5.60;4.43;;;11.20;19.20;;;;;;5076203;28;20475;-85
2021/04/13 13:23:13;;;;;;;5.10;3.70;;;10.50;18.50;;;;;;5075210;28;20479;-85
2021/04/13 13:25:42;;;;;;;6.87;4.40;;;10.50;19.30;;;;;;5076028;28;20471;-85
2021/04/13 13:28:12;;;;;;;14.63;7.93;;;11.00;19.20;;;;;;5065763;28;20495;-85
2021/04/13 13:30:39;;;;;;;9.00;6.10;;;11.00;22.20;;;;;;5063654;28;20930;-85